首页
METAR-TAF:

METAR-TAF

机场 :

Porter County Municipal Airport

瓦尔帕莱索, 印第安纳州, 美国

纬度: 41-27-11N, 经度: 086-59-53W, 海拔: 234米

当前天气观测

该预报发布于1小时和6分钟前的19:56 UTC
风速6节,风向东北
温度 5°C
湿度 81%
气压 1010 hPa
能見度: 12.9公里
阴天层高于1200英尺

METAR: KVPZ 241956Z AUTO 05006KT 8SM OVC012 05/02 A2983 RMK AO2 RAB01E10B40E49 SLP106 P0000 T00500022

时间: 15:02 (21:02 UTC)


TAF: 丢失

超过4000个机场的气象观测和天气预报(METAR&TAF报告)。

可查询的气象台以黄色和红色小点在地图上表示。

将鼠标移到小点上方,可查看气象台名称。

然后点击查看天气观测和预报。

如需切换地图:点击带黑十字的绿色按钮放大地图;点击带横线的绿色按钮缩小地图;或者点击绿色箭头查看邻近地区的地图。


METAR-TAF: